Time;durP1;ratioP1;P1;durP2;ratioP2;P2;SDS_P1;SDS_P2;PMS_P1;PMS_P2;Temp;Humidity;BMP_temperature;BMP_pressure;BME280_temperature;BME280_humidity;BME280_pressure;Samples;Min_cycle;Max_cycle;Signal;HPM_P1;HPM_P2
2022/02/17 00:00:19;;;;;;;14.38;13.88;;;;;;;13.54;66.12;97824.34;693857;28;22384;-70
2022/02/17 00:00:41;;;;;;;12.27;11.88;;;;;;;13.58;66.08;97865.34;693220;28;44166;-70
2022/02/17 00:01:02;;;;;;;16.52;15.93;;;;;;;13.57;65.83;97788.56;692244;28;66666;-70
2022/02/17 00:01:23;;;;;;;7.65;7.45;;;;;;;13.50;65.96;97775.28;693479;28;21540;-70
2022/02/17 00:01:44;;;;;;;5.57;5.38;;;;;;;13.47;65.96;97812.97;690844;28;22122;-71
2022/02/17 00:02:05;;;;;;;6.70;6.50;;;;;;;13.51;66.08;97797.78;690872;28;21538;-70
2022/02/17 00:02:27;;;;;;;9.70;9.40;;;;;;;13.52;65.96;97802.13;691171;28;22476;-71
2022/02/17 00:02:50;;;;;;;19.27;18.58;;;;;;;13.47;65.93;97767.69;688146;28;45247;-71
2022/02/17 00:03:12;;;;;;;20.75;19.95;;;;;;;13.43;65.99;97809.16;688110;28;69420;-71
2022/02/17 00:03:33;;;;;;;17.35;16.75;;;;;;;13.46;65.75;97790.47;690796;28;44115;-70
2022/02/17 00:03:55;;;;;;;12.13;11.73;;;;;;;13.46;65.71;97778.78;693705;28;22390;-70
2022/02/17 00:04:16;;;;;;;15.10;14.60;;;;;;;13.45;65.73;97775.28;693070;28;45074;-71
2022/02/17 00:04:37;;;;;;;19.90;19.20;;;;;;;13.44;65.72;97768.22;693994;28;23519;-70
2022/02/17 00:05:00;;;;;;;20.00;19.30;;;;;;;13.44;66.20;97783.69;693725;28;22383;-70
2022/02/17 00:05:25;;;;;;;14.65;14.15;;;;;;;13.44;66.05;97757.38;688043;28;92976;-70
2022/02/17 00:05:46;;;;;;;13.32;12.88;;;;;;;13.42;65.95;97770.41;688992;28;68507;-70
2022/02/17 00:06:07;;;;;;;26.08;25.02;;;;;;;13.41;66.53;97774.19;690849;28;23462;-71
2022/02/17 00:06:32;;;;;;;22.65;21.77;;;;;;;13.41;66.52;97782.31;689624;28;23457;-70
2022/02/17 00:06:53;;;;;;;15.73;15.18;;;;;;;13.42;66.44;97772.31;687795;28;113592;-70
2022/02/17 00:07:14;;;;;;;15.70;15.15;;;;;;;13.37;66.33;97811.06;691951;28;22411;-71
2022/02/17 00:07:36;;;;;;;28.02;26.90;;;;;;;13.40;66.51;97788.00;694158;28;22073;-70
2022/02/17 00:08:01;;;;;;;23.48;22.55;;;;;;;13.42;66.27;97783.16;690637;28;114812;-70
2022/02/17 00:08:22;;;;;;;17.60;17.00;;;;;;;13.43;66.69;97785.59;692328;28;69082;-71
2022/02/17 00:08:44;;;;;;;11.88;11.48;;;;;;;13.44;66.56;97787.19;694033;28;23434;-70
2022/02/17 00:09:05;;;;;;;22.42;21.55;;;;;;;13.48;66.76;97834.38;693673;28;22412;-71
2022/02/17 00:09:27;;;;;;;23.45;22.58;;;;;;;13.51;66.83;97763.38;694536;28;2502;-70
2022/02/17 00:09:48;;;;;;;11.75;11.35;;;;;;;13.51;67.07;97785.06;692829;28;44435;-70
2022/02/17 00:10:09;;;;;;;8.80;8.50;;;;;;;13.46;66.72;97793.19;693517;28;22344;-71
2022/02/17 00:10:32;;;;;;;9.75;9.45;;;;;;;13.46;66.84;97776.09;693102;28;44383;-70
2022/02/17 00:10:56;;;;;;;10.27;9.93;;;;;;;13.45;67.11;97775.28;690373;28;113410;-71
2022/02/17 00:11:17;;;;;;;7.70;7.50;;;;;;;13.44;67.07;97797.25;692228;28;22375;-70
2022/02/17 00:11:41;;;;;;;15.02;14.50;;;;;;;13.46;66.92;97754.41;694114;28;23469;-71
2022/02/17 00:12:03;;;;;;;13.95;13.45;;;;;;;13.43;67.10;97787.47;690051;28;90475;-70
2022/02/17 00:12:25;;;;;;;10.95;10.65;;;;;;;13.46;67.14;97776.91;692379;28;46531;-70
2022/02/17 00:12:46;;;;;;;7.82;7.63;;;;;;;13.48;67.23;97763.91;691820;28;45332;-71
2022/02/17 00:13:07;;;;;;;8.35;8.15;;;;;;;13.49;67.09;97759.28;692430;28;23467;-71
2022/02/17 00:13:31;;;;;;;7.30;7.10;;;;;;;13.46;67.04;97763.38;691445;28;69415;-70
2022/02/17 00:13:52;;;;;;;8.93;8.63;;;;;;;13.45;67.51;97764.44;691618;28;45285;-71
2022/02/17 00:14:13;;;;;;;15.70;15.10;;;;;;;13.43;67.71;97791.00;692431;28;22484;-71
2022/02/17 00:14:34;;;;;;;13.15;12.75;;;;;;;13.43;67.72;97749.50;693597;28;21546;-71
2022/02/17 00:14:55;;;;;;;11.30;10.93;;;;;;;13.40;67.80;97736.50;693703;28;23444;-70
2022/02/17 00:15:17;;;;;;;10.25;9.93;;;;;;;13.35;67.74;97729.16;690642;28;23482;-70
2022/02/17 00:15:38;;;;;;;23.23;22.30;;;;;;;13.32;67.68;97784.72;690549;28;44391;-70
2022/02/17 00:15:59;;;;;;;30.65;29.35;;;;;;;13.33;68.02;97797.19;687881;28;22420;-70
2022/02/17 00:16:21;;;;;;;27.45;26.30;;;;;;;13.39;67.52;97734.88;690282;28;22401;-71
2022/02/17 00:16:42;;;;;;;12.15;11.75;;;;;;;13.43;67.58;97798.31;690225;28;45252;-70
2022/02/17 00:17:04;;;;;;;22.88;21.98;;;;;;;13.44;67.48;97756.56;690677;28;22400;-71
2022/02/17 00:17:25;;;;;;;21.65;20.85;;;;;;;13.46;67.77;97751.69;690088;28;46403;-70
2022/02/17 00:17:47;;;;;;;18.13;17.48;;;;;;;13.44;67.53;97740.31;691271;28;23917;-71
2022/02/17 00:18:12;;;;;;;15.48;14.93;;;;;;;13.41;67.53;97716.44;693058;28;46110;-71
2022/02/17 00:18:33;;;;;;;15.82;15.23;;;;;;;13.39;67.61;97737.59;690719;28;114981;-71
2022/02/17 00:18:55;;;;;;;19.17;18.48;;;;;;;13.40;67.73;97752.75;693937;28;23434;-70
2022/02/17 00:19:16;;;;;;;19.77;19.05;;;;;;;13.43;67.73;97744.09;693015;28;46352;-71
2022/02/17 00:19:37;;;;;;;33.53;32.10;;;;;;;13.42;67.87;97773.09;693734;28;22362;-70
2022/02/17 00:19:59;;;;;;;24.95;23.92;;;;;;;13.44;67.67;97751.94;693729;28;24331;-70
2022/02/17 00:20:21;;;;;;;16.92;16.33;;;;;;;13.46;68.03;97760.66;693641;28;22411;-70
2022/02/17 00:20:42;;;;;;;11.55;11.15;;;;;;;13.47;67.83;97786.66;693040;28;44173;-71
2022/02/17 00:21:03;;;;;;;8.80;8.50;;;;;;;13.51;67.59;97757.94;693542;28;22399;-70
2022/02/17 00:21:25;;;;;;;5.63;5.47;;;;;;;13.51;67.61;97749.81;692818;28;21530;-70
2022/02/17 00:21:47;;;;;;;3.72;3.63;;;;;;;13.51;67.97;97746.25;693174;28;47168;-70
2022/02/17 00:22:08;;;;;;;8.02;7.80;;;;;;;13.51;67.66;97747.09;692308;28;67145;-70
2022/02/17 00:22:29;;;;;;;8.27;8.00;;;;;;;13.49;67.89;97754.69;693981;28;22346;-70
2022/02/17 00:22:51;;;;;;;5.80;5.60;;;;;;;13.46;67.68;97757.09;693935;28;22406;-70
2022/02/17 00:23:12;;;;;;;3.80;3.70;;;;;;;13.51;67.69;97762.53;693000;28;44390;-70
2022/02/17 00:23:34;;;;;;;5.57;5.45;;;;;;;13.54;67.99;97715.09;693490;28;22386;-70
2022/02/17 00:23:55;;;;;;;6.50;6.30;;;;;;;13.50;67.85;97763.63;693648;28;23455;-70
2022/02/17 00:24:17;;;;;;;8.02;7.80;;;;;;;13.51;67.54;97757.94;694293;28;8555;-70
2022/02/17 00:24:38;;;;;;;18.45;17.75;;;;;;;13.54;67.79;97759.28;693180;28;46576;-70
2022/02/17 00:24:59;;;;;;;16.10;15.50;;;;;;;13.56;67.59;97750.88;693797;28;22392;-70
2022/02/17 00:25:20;;;;;;;12.88;12.48;;;;;;;13.50;67.79;97753.59;693452;28;23474;-71
2022/02/17 00:25:42;;;;;;;10.95;10.57;;;;;;;13.52;67.48;97796.69;692700;28;45255;-70
2022/02/17 00:26:03;;;;;;;10.02;9.73;;;;;;;13.54;67.68;97751.16;692669;28;44376;-70
2022/02/17 00:26:24;;;;;;;9.70;9.40;;;;;;;13.58;67.59;97735.97;692730;28;21906;-70
2022/02/17 00:26:47;;;;;;;6.20;6.00;;;;;;;13.56;67.81;97727.31;693664;28;22433;-71
2022/02/17 00:27:09;;;;;;;7.97;7.75;;;;;;;13.51;67.48;97732.69;688950;28;46352;-70
2022/02/17 00:27:30;;;;;;;11.30;10.90;;;;;;;13.50;67.84;97717.53;689626;28;44145;-71
2022/02/17 00:27:51;;;;;;;9.27;8.98;;;;;;;13.46;67.79;97741.69;690667;28;22363;-71
2022/02/17 00:28:13;;;;;;;11.20;10.80;;;;;;;13.47;68.05;97731.63;690909;28;22272;-71
2022/02/17 00:28:35;;;;;;;7.43;7.22;;;;;;;13.45;67.96;97715.63;689559;28;69440;-71
2022/02/17 00:29:00;;;;;;;16.88;16.25;;;;;;;13.43;67.67;97725.94;688131;28;114905;-71
2022/02/17 00:29:21;;;;;;;15.93;15.32;;;;;;;13.40;68.08;97745.47;690554;28;22422;-71
2022/02/17 00:29:43;;;;;;;11.18;10.82;;;;;;;13.46;68.01;97724.56;690797;28;23505;-70
2022/02/17 00:30:06;;;;;;;7.72;7.53;;;;;;;13.45;67.84;97733.81;689760;28;44301;-70
2022/02/17 00:30:29;;;;;;;15.23;14.63;;;;;;;13.47;67.92;97788.56;690225;28;52185;-70
2022/02/17 00:30:51;;;;;;;15.73;15.13;;;;;;;13.51;67.74;97743.53;689859;28;45729;-71
2022/02/17 00:31:12;;;;;;;11.00;10.60;;;;;;;13.56;67.66;97748.16;689802;28;45577;-70
2022/02/17 00:31:33;;;;;;;8.15;7.95;;;;;;;13.55;67.48;97760.91;691341;28;22240;-71
2022/02/17 00:31:57;;;;;;;14.30;13.77;;;;;;;13.58;67.65;97725.13;689694;28;89751;-71
2022/02/17 00:32:19;;;;;;;14.52;14.02;;;;;;;13.57;67.77;97730.81;691770;28;22424;-70
2022/02/17 00:32:40;;;;;;;12.07;11.68;;;;;;;13.55;67.76;97758.22;691989;28;46422;-71
2022/02/17 00:33:01;;;;;;;9.88;9.57;;;;;;;13.60;67.68;97768.25;693480;28;21224;-71
2022/02/17 00:33:23;;;;;;;7.80;7.57;;;;;;;13.65;67.64;97770.94;693207;28;44102;-70
2022/02/17 00:33:45;;;;;;;17.65;16.98;;;;;;;13.69;67.12;97750.34;693633;28;22402;-70
2022/02/17 00:34:07;;;;;;;17.42;16.77;;;;;;;13.70;67.28;97667.91;689191;28;45204;-70
2022/02/17 00:34:28;;;;;;;12.02;11.63;;;;;;;13.73;67.21;97740.59;690430;28;43989;-69
2022/02/17 00:34:50;;;;;;;7.05;6.85;;;;;;;13.74;67.23;97706.16;690840;28;23449;-69
2022/02/17 00:35:15;;;;;;;11.27;10.88;;;;;;;13.70;66.92;97725.69;684521;28;44069;-70
2022/02/17 00:35:36;;;;;;;9.77;9.45;;;;;;;13.67;67.08;97728.94;680264;28;115035;-70
2022/02/17 00:36:00;;;;;;;9.55;9.25;;;;;;;13.67;67.40;97720.00;681546;28;90797;-69
2022/02/17 00:36:21;;;;;;;13.93;13.43;;;;;;;13.70;66.80;97769.06;685177;28;22440;-69
2022/02/17 00:36:43;;;;;;;9.77;9.47;;;;;;;13.74;67.18;97717.81;686037;28;44452;-70
2022/02/17 00:37:04;;;;;;;9.75;9.43;;;;;;;13.76;66.75;97748.19;684447;28;46360;-70
2022/02/17 00:37:25;;;;;;;20.75;19.95;;;;;;;13.79;67.15;97739.53;689230;28;44535;-70
2022/02/17 00:37:46;;;;;;;17.20;16.58;;;;;;;13.78;66.79;97731.66;692407;28;21527;-69
2022/02/17 00:38:11;;;;;;;11.55;11.15;;;;;;;13.74;67.10;97719.72;689159;28;91990;-69
2022/02/17 00:38:33;;;;;;;10.27;9.98;;;;;;;13.71;67.48;97748.19;687975;28;45283;-70
2022/02/17 00:38:54;;;;;;;20.30;19.50;;;;;;;13.73;67.27;97721.63;689923;28;21325;-70
2022/02/17 00:39:15;;;;;;;20.42;19.63;;;;;;;13.74;66.75;97747.63;691275;28;22408;-70
2022/02/17 00:39:36;;;;;;;23.75;22.80;;;;;;;13.76;66.77;97696.66;691208;28;21539;-70
2022/02/17 00:39:58;;;;;;;19.27;18.55;;;;;;;13.75;67.12;97726.78;690943;28;22545;-70
2022/02/17 00:40:19;;;;;;;12.52;12.13;;;;;;;13.71;67.35;97734.63;690363;28;45022;-70
2022/02/17 00:40:40;;;;;;;15.13;14.60;;;;;;;13.72;67.35;97711.84;690597;28;23547;-69
2022/02/17 00:41:02;;;;;;;10.60;10.23;;;;;;;13.76;67.19;97753.63;689980;28;46146;-69
2022/02/17 00:41:24;;;;;;;18.65;17.95;;;;;;;13.79;67.30;97723.25;684684;28;46319;-69
2022/02/17 00:41:46;;;;;;;14.68;14.13;;;;;;;13.77;67.47;97738.97;687530;28;44539;-69
2022/02/17 00:42:07;;;;;;;5.50;5.32;;;;;;;13.78;67.56;97690.97;686327;28;69811;-68
2022/02/17 00:42:28;;;;;;;3.90;3.80;;;;;;;13.77;67.55;97744.38;689106;28;21553;-68
2022/02/17 00:42:50;;;;;;;6.20;6.00;;;;;;;13.77;67.67;97752.53;689161;28;22354;-69
2022/02/17 00:43:11;;;;;;;9.88;9.57;;;;;;;13.77;67.78;97724.59;688421;28;44384;-69
2022/02/17 00:43:32;;;;;;;12.30;11.90;;;;;;;13.77;67.79;97768.00;689814;28;23703;-69
2022/02/17 00:43:54;;;;;;;9.80;9.50;;;;;;;13.74;68.47;97734.06;689161;28;22205;-69
2022/02/17 00:44:16;;;;;;;6.95;6.75;;;;;;;13.73;68.40;97742.47;687596;28;47075;-69
2022/02/17 00:44:37;;;;;;;8.65;8.35;;;;;;;13.69;68.75;97728.66;688150;28;46421;-69
2022/02/17 00:44:58;;;;;;;7.93;7.70;;;;;;;13.65;68.45;97711.28;691580;28;21259;-69
2022/02/17 00:45:22;;;;;;;18.85;18.10;;;;;;;13.62;68.71;97731.66;688844;28;69420;-68
2022/02/17 00:45:44;;;;;;;16.13;15.52;;;;;;;13.65;68.71;97711.28;690877;28;22212;-69
2022/02/17 00:46:05;;;;;;;12.77;12.30;;;;;;;13.67;68.93;97744.41;687786;28;45423;-68
2022/02/17 00:46:27;;;;;;;7.45;7.25;;;;;;;13.63;68.89;97702.63;687812;28;4122;-69
2022/02/17 00:46:48;;;;;;;6.07;5.88;;;;;;;13.56;69.00;97740.88;684538;28;44365;-69
2022/02/17 00:47:11;;;;;;;2.88;2.78;;;;;;;13.57;69.36;97766.06;685231;28;44368;-68
2022/02/17 00:47:32;;;;;;;2.55;2.45;;;;;;;13.57;69.50;97744.38;684988;28;48195;-68
2022/02/17 00:47:53;;;;;;;2.72;2.63;;;;;;;13.61;69.47;97735.44;687306;28;21521;-69
2022/02/17 00:48:15;;;;;;;2.35;2.35;;;;;;;13.62;69.77;97719.97;689962;28;23508;-69
2022/02/17 00:48:39;;;;;;;7.00;6.80;;;;;;;13.57;69.52;97707.22;690558;28;69321;-69
2022/02/17 00:49:00;;;;;;;14.05;13.57;;;;;;;13.57;69.92;97734.34;692276;28;44285;-68
2022/02/17 00:49:22;;;;;;;29.33;28.15;;;;;;;13.55;69.38;97719.44;693433;28;23300;-69
2022/02/17 00:49:43;;;;;;;31.77;30.48;;;;;;;13.51;69.63;97732.69;693218;28;44418;-68
2022/02/17 00:50:06;;;;;;;28.17;26.98;;;;;;;13.48;69.96;97725.13;693411;28;22419;-69
2022/02/17 00:50:29;;;;;;;23.10;22.17;;;;;;;13.49;69.62;97718.63;690906;28;38187;-69
2022/02/17 00:50:51;;;;;;;31.13;29.83;;;;;;;13.50;69.83;97714.81;692372;28;912;-69
2022/02/17 00:51:12;;;;;;;28.48;27.33;;;;;;;13.47;70.11;97737.84;692161;28;22215;-69
2022/02/17 00:51:34;;;;;;;22.20;21.30;;;;;;;13.49;70.13;97708.59;691602;28;22393;-69
2022/02/17 00:51:56;;;;;;;29.92;28.73;;;;;;;13.52;70.11;97697.19;687304;28;69542;-68
2022/02/17 00:52:17;;;;;;;24.33;23.35;;;;;;;13.50;70.37;97742.75;689857;28;23461;-68
2022/02/17 00:52:38;;;;;;;19.85;19.10;;;;;;;13.48;70.19;97731.38;687449;28;23481;-68
2022/02/17 00:53:00;;;;;;;26.10;25.05;;;;;;;13.47;70.29;97712.66;687325;28;44152;-69
2022/02/17 00:53:22;;;;;;;39.47;37.78;;;;;;;13.41;70.50;97700.19;686939;28;1578;-68
2022/02/17 00:53:43;;;;;;;33.08;31.67;;;;;;;13.40;70.77;97717.50;687259;28;21673;-68
2022/02/17 00:54:04;;;;;;;25.48;24.45;;;;;;;13.41;70.84;97728.09;686839;28;1010;-68
2022/02/17 00:54:27;;;;;;;14.80;14.27;;;;;;;13.39;70.56;97724.84;686026;28;46586;-68
2022/02/17 00:54:48;;;;;;;6.60;6.40;;;;;;;13.39;71.09;97740.31;688660;28;44407;-68
2022/02/17 00:55:09;;;;;;;4.40;4.30;;;;;;;13.36;71.28;97736.22;688356;28;22389;-68
2022/02/17 00:55:31;;;;;;;5.00;4.88;;;;;;;13.42;71.55;97696.41;684064;28;17064;-68
2022/02/17 00:55:52;;;;;;;13.77;13.27;;;;;;;13.40;71.81;97721.06;683222;28;46220;-68
2022/02/17 00:56:14;;;;;;;19.00;18.30;;;;;;;13.33;72.32;97758.44;682705;28;46550;-68
2022/02/17 00:56:37;;;;;;;16.90;16.30;;;;;;;13.33;72.12;97728.63;684103;28;67610;-68
2022/02/17 00:57:00;;;;;;;16.15;15.55;;;;;;;13.32;72.09;97676.28;686574;28;44466;-68
2022/02/17 00:57:22;;;;;;;23.42;22.52;;;;;;;13.27;72.39;97727.75;687093;28;92334;-68
2022/02/17 00:57:43;;;;;;;17.92;17.30;;;;;;;13.21;72.33;97720.69;686326;28;21527;-68
2022/02/17 00:58:07;;;;;;;13.23;12.80;;;;;;;13.22;72.09;97708.78;683148;28;46275;-68
2022/02/17 00:58:30;;;;;;;11.45;11.05;;;;;;;13.17;72.39;97733.19;683039;28;90388;-68
2022/02/17 00:58:51;;;;;;;14.43;13.93;;;;;;;13.22;72.38;97710.69;686229;28;46417;-68
2022/02/17 00:59:18;;;;;;;5.10;4.95;;;;;;;13.23;72.54;97752.97;685873;28;75774;-68
2022/02/17 00:59:41;;;;;;;9.43;9.13;;;;;;;13.24;72.80;97694.97;688569;28;22475;-68
2022/02/17 01:00:04;;;;;;;17.83;17.23;;;;;;;13.20;72.85;97699.28;684906;28;69465;-68
2022/02/17 01:00:30;;;;;;;14.10;13.60;;;;;;;13.13;72.51;97696.84;679623;28;137804;-68
2022/02/17 01:01:00;;;;;;;10.13;9.82;;;;;;;13.09;72.98;97717.44;682083;28;137943;-68
2022/02/17 01:01:21;;;;;;;13.10;12.60;;;;;;;13.09;72.88;97731.00;686043;28;22436;-68
2022/02/17 01:01:46;;;;;;;11.45;11.05;;;;;;;13.08;72.88;97708.50;686569;28;22422;-68
2022/02/17 01:02:07;;;;;;;19.20;18.48;;;;;;;13.10;73.30;97708.22;685249;28;115890;-68
2022/02/17 01:02:28;;;;;;;27.35;26.25;;;;;;;13.07;73.09;97697.91;688455;28;22376;-68
2022/02/17 01:02:51;;;;;;;22.55;21.67;;;;;;;13.06;73.16;97690.91;686963;28;22409;-68
2022/02/17 01:03:12;;;;;;;23.67;22.77;;;;;;;13.04;73.40;97718.25;688471;28;44423;-68
2022/02/17 01:03:33;;;;;;;28.50;27.35;;;;;;;13.03;73.14;97694.13;689951;28;1528;-68
2022/02/17 01:03:54;;;;;;;22.50;21.60;;;;;;;13.00;73.26;97706.31;686777;28;21157;-68
2022/02/17 01:04:16;;;;;;;22.77;21.88;;;;;;;13.00;73.51;97733.41;687630;28;22377;-68
2022/02/17 01:04:37;;;;;;;24.17;23.20;;;;;;;13.03;73.46;97688.72;682835;28;68889;-68
2022/02/17 01:04:59;;;;;;;16.58;15.98;;;;;;;13.05;73.91;97709.03;686302;28;23412;-68
2022/02/17 01:05:20;;;;;;;24.58;23.60;;;;;;;13.04;73.52;97703.88;685780;28;44235;-68
2022/02/17 01:05:43;;;;;;;23.27;22.38;;;;;;;13.00;73.88;97698.19;683697;28;22430;-68
2022/02/17 01:06:05;;;;;;;28.58;27.38;;;;;;;12.98;73.92;97686.81;684669;28;69820;-68
2022/02/17 01:06:26;;;;;;;30.98;29.67;;;;;;;12.92;74.00;97694.09;683360;28;21519;-68
2022/02/17 01:06:47;;;;;;;25.10;24.08;;;;;;;12.90;73.78;97698.16;687228;28;46311;-68
2022/02/17 01:07:09;;;;;;;31.60;30.27;;;;;;;12.87;74.07;97729.31;687999;28;21257;-67
2022/02/17 01:07:31;;;;;;;40.30;38.55;;;;;;;12.87;74.02;97695.97;685367;28;46305;-68
2022/02/17 01:07:53;;;;;;;30.67;29.45;;;;;;;12.83;74.05;97725.50;685887;28;69388;-68
2022/02/17 01:08:15;;;;;;;24.27;23.30;;;;;;;12.85;73.91;97679.19;688431;28;21527;-68
2022/02/17 01:08:37;;;;;;;20.92;20.13;;;;;;;12.90;74.19;97707.09;688305;28;22432;-68
2022/02/17 01:08:58;;;;;;;23.92;23.00;;;;;;;12.93;74.42;97708.44;686376;28;70203;-68
2022/02/17 01:09:20;;;;;;;18.88;18.17;;;;;;;12.89;74.18;97699.25;686380;28;23503;-68
2022/02/17 01:09:42;;;;;;;18.55;17.85;;;;;;;12.86;73.80;97726.84;683656;28;21566;-68
2022/02/17 01:10:04;;;;;;;14.95;14.45;;;;;;;12.89;74.12;97685.69;682857;28;44302;-68
2022/02/17 01:10:25;;;;;;;23.40;22.52;;;;;;;12.87;73.92;97664.31;684675;28;18972;-68
2022/02/17 01:10:46;;;;;;;22.15;21.27;;;;;;;12.86;74.07;97684.34;685641;28;23769;-68
2022/02/17 01:11:07;;;;;;;12.07;11.68;;;;;;;12.87;74.02;97683.25;682230;28;46555;-68
2022/02/17 01:11:30;;;;;;;18.85;18.13;;;;;;;12.84;73.86;97683.78;685407;28;22131;-68
2022/02/17 01:11:51;;;;;;;26.13;25.10;;;;;;;12.81;73.86;97692.44;686306;28;69341;-68
2022/02/17 01:12:14;;;;;;;17.85;17.17;;;;;;;12.84;74.20;97696.53;692252;28;22409;-68
2022/02/17 01:12:35;;;;;;;17.75;17.13;;;;;;;12.78;74.18;97682.16;689302;28;1518;-68
2022/02/17 01:12:58;;;;;;;24.60;23.63;;;;;;;12.76;74.25;97711.41;688100;28;46300;-68
2022/02/17 01:13:23;;;;;;;30.27;29.05;;;;;;;12.76;74.15;97722.22;686764;28;138836;-68
2022/02/17 01:13:44;;;;;;;22.38;21.48;;;;;;;12.78;74.13;97741.72;687111;28;46406;-68
2022/02/17 01:14:07;;;;;;;16.38;15.77;;;;;;;12.79;74.02;97695.41;688068;28;21523;-67
2022/02/17 01:14:28;;;;;;;15.23;14.68;;;;;;;12.78;74.42;97709.22;689309;28;1667;-68
2022/02/17 01:14:49;;;;;;;13.68;13.18;;;;;;;12.78;74.27;97712.75;684736;28;22479;-68
2022/02/17 01:15:10;;;;;;;9.18;8.88;;;;;;;12.78;74.05;97698.41;683943;28;21564;-68
2022/02/17 01:15:33;;;;;;;13.13;12.65;;;;;;;12.78;73.90;97696.50;687640;28;8870;-68
2022/02/17 01:15:54;;;;;;;17.92;17.23;;;;;;;12.80;73.84;97682.69;686127;28;69538;-68
2022/02/17 01:16:15;;;;;;;13.40;12.90;;;;;;;12.77;74.20;97691.34;684213;28;22429;-68
2022/02/17 01:16:36;;;;;;;11.25;10.85;;;;;;;12.77;73.83;97692.19;685635;28;23088;-68
2022/02/17 01:17:09;;;;;;;15.30;14.75;;;;;;;12.78;73.92;97714.66;681739;28;138500;-67
2022/02/17 01:17:40;;;;;;;6.85;6.60;;;;;;;12.80;73.77;97707.06;682794;28;98339;-68
2022/02/17 01:18:02;;;;;;;11.90;11.50;;;;;;;12.85;73.67;97687.31;681869;28;45232;-68
2022/02/17 01:18:27;;;;;;;12.82;12.43;;;;;;;12.84;73.24;97724.41;682824;28;92318;-68
2022/02/17 01:18:48;;;;;;;17.13;16.48;;;;;;;12.82;73.12;97786.16;682619;28;46734;-68
2022/02/17 01:19:14;;;;;;;31.23;29.92;;;;;;;12.80;73.50;97896.63;680382;28;116025;-68
2022/02/17 01:19:41;;;;;;;22.13;21.27;;;;;;;12.80;73.33;97953.50;679897;28;136383;-68
2022/02/17 01:20:03;;;;;;;16.30;15.70;;;;;;;12.78;72.94;97975.44;685074;28;46408;-67
2022/02/17 01:20:27;;;;;;;20.20;19.45;;;;;;;12.76;72.87;97923.44;680576;28;115179;-68
2022/02/17 01:20:52;;;;;;;34.95;33.47;;;;;;;12.78;72.63;97940.22;684206;28;93147;-67
2022/02/17 01:21:14;;;;;;;42.05;40.25;;;;;;;12.80;72.45;97969.75;688108;28;46284;-67
2022/02/17 01:21:35;;;;;;;32.78;31.40;;;;;;;12.76;72.06;97974.88;685740;28;66274;-67
2022/02/17 01:21:57;;;;;;;30.30;29.05;;;;;;;12.73;72.04;97931.28;688283;28;21503;-68
2022/02/17 01:22:18;;;;;;;30.30;29.05;;;;;;;12.69;71.60;97949.09;686810;28;47219;-67
2022/02/17 01:22:45;;;;;;;25.42;24.42;;;;;;;12.62;71.13;97917.66;686934;28;68331;-67
2022/02/17 01:23:07;;;;;;;20.73;19.92;;;;;;;12.56;70.95;97953.06;682157;28;138169;-67
2022/02/17 01:23:28;;;;;;;12.98;12.52;;;;;;;12.50;70.95;97943.28;685249;28;21547;-67
2022/02/17 01:23:50;;;;;;;9.20;8.90;;;;;;;12.44;70.71;97947.81;683047;28;44418;-67
2022/02/17 01:24:12;;;;;;;7.82;7.60;;;;;;;12.41;70.74;97940.22;682168;28;46433;-67
2022/02/17 01:24:35;;;;;;;5.82;5.65;;;;;;;12.36;70.72;97942.88;680760;28;70403;-67
2022/02/17 01:25:00;;;;;;;14.77;14.23;;;;;;;12.29;70.51;97969.31;679313;28;115118;-67
2022/02/17 01:25:22;;;;;;;10.57;10.17;;;;;;;12.20;70.15;97945.44;684153;28;46638;-67
2022/02/17 01:25:44;;;;;;;3.30;3.20;;;;;;;12.15;70.32;97941.88;685701;28;69443;-68
2022/02/17 01:26:05;;;;;;;2.20;2.20;;;;;;;12.06;70.96;97946.94;684331;28;46301;-67
2022/02/17 01:26:35;;;;;;;11.68;11.25;;;;;;;12.05;70.80;97931.75;680524;28;138920;-67
2022/02/17 01:26:58;;;;;;;9.02;8.73;;;;;;;12.00;71.20;97975.81;679472;28;116714;-67
2022/02/17 01:27:21;;;;;;;4.25;4.15;;;;;;;11.92;71.08;97946.50;682540;28;22414;-67
2022/02/17 01:27:42;;;;;;;1.73;1.73;;;;;;;11.89;70.94;97925.34;682716;28;46294;-67
2022/02/17 01:28:03;;;;;;;2.45;2.45;;;;;;;11.85;70.90;97937.75;684081;28;22395;-67
2022/02/17 01:28:26;;;;;;;2.03;2.03;;;;;;;11.80;71.48;97930.41;685578;28;69407;-68
2022/02/17 01:28:48;;;;;;;1.63;1.63;;;;;;;11.77;71.32;97943.59;685081;28;46577;-67
2022/02/17 01:29:11;;;;;;;3.05;2.95;;;;;;;11.72;71.43;97953.31;685682;28;69709;-67
2022/02/17 01:29:32;;;;;;;2.30;2.30;;;;;;;11.73;71.57;97954.13;687894;28;46342;-67
2022/02/17 01:29:54;;;;;;;1.50;1.50;;;;;;;11.68;71.45;97927.84;686382;28;20842;-68
2022/02/17 01:30:18;;;;;;;1.13;1.13;;;;;;;11.65;71.71;97931.03;684131;28;37907;-68
2022/02/17 01:30:40;;;;;;;1.98;1.98;;;;;;;11.62;71.50;97909.91;686390;28;22419;-68
2022/02/17 01:31:04;;;;;;;2.60;2.50;;;;;;;11.60;71.81;97881.50;682610;28;114160;-67
2022/02/17 01:31:29;;;;;;;1.88;1.88;;;;;;;11.63;72.17;97881.81;680938;28;81042;-68
2022/02/17 01:32:08;;;;;;;2.38;2.38;;;;;;;11.72;71.12;97850.56;683969;28;136852;-67
2022/02/17 01:32:32;;;;;;;2.33;2.33;;;;;;;11.71;71.23;97854.34;688857;28;22356;-67
2022/02/17 01:32:54;;;;;;;1.50;1.50;;;;;;;11.65;71.35;97849.13;682784;28;66381;-68
2022/02/17 01:33:15;;;;;;;1.10;1.10;;;;;;;11.58;70.72;97833.09;685849;28;46654;-67
2022/02/17 01:33:46;;;;;;;2.55;2.45;;;;;;;11.49;71.24;97831.94;679599;28;161099;-67
2022/02/17 01:34:11;;;;;;;1.83;1.83;;;;;;;11.48;71.14;97828.41;680901;28;90323;-67
2022/02/17 01:34:39;;;;;;;1.40;1.40;;;;;;;11.45;71.56;97834.31;679941;28;138010;-68
2022/02/17 01:35:00;;;;;;;1.13;1.13;;;;;;;11.41;71.70;97846.72;681461;28;46768;-68
2022/02/17 01:35:23;;;;;;;1.80;1.80;;;;;;;11.39;71.71;97846.16;682196;28;35029;-68
2022/02/17 01:36:06;;;;;;;1.98;1.88;;;;;;;11.35;71.66;97864.75;680783;28;135808;-68
2022/02/17 01:36:29;;;;;;;1.35;1.35;;;;;;;11.32;71.51;97870.66;682701;28;61789;-67
2022/02/17 01:36:50;;;;;;;2.08;2.08;;;;;;;11.31;71.38;97876.31;684309;28;45273;-68
2022/02/17 01:37:12;;;;;;;3.00;2.90;;;;;;;11.32;71.58;97872.56;685741;28;21540;-67
2022/02/17 01:37:33;;;;;;;1.95;1.95;;;;;;;11.30;71.93;97871.97;685250;28;21435;-68
2022/02/17 01:37:55;;;;;;;1.15;1.15;;;;;;;11.29;71.80;97862.25;683775;28;22402;-68
2022/02/17 01:38:16;;;;;;;0.70;0.70;;;;;;;11.29;71.99;97878.47;680965;28;69765;-69
2022/02/17 01:38:39;;;;;;;1.00;1.00;;;;;;;11.29;72.00;97889.28;682346;28;22425;-68
2022/02/17 01:39:02;;;;;;;1.00;1.00;;;;;;;11.26;71.69;97890.59;681771;28;69700;-69
2022/02/17 01:39:23;;;;;;;0.70;0.70;;;;;;;11.26;72.07;97881.66;683435;28;46460;-69
2022/02/17 01:39:45;;;;;;;0.70;0.70;;;;;;;11.27;72.28;97891.38;685293;28;43968;-68
2022/02/17 01:40:09;;;;;;;0.70;0.70;;;;;;;11.26;72.34;97892.47;682216;28;69526;-68
2022/02/17 01:40:31;;;;;;;1.05;1.05;;;;;;;11.25;72.01;97890.84;682969;28;47424;-68
2022/02/17 01:40:52;;;;;;;1.05;1.05;;;;;;;11.26;71.93;97885.19;682173;28;69718;-68
2022/02/17 01:41:15;;;;;;;0.80;0.80;;;;;;;11.25;72.22;97890.84;684834;28;46682;-68
2022/02/17 01:41:37;;;;;;;0.70;0.70;;;;;;;11.24;72.16;97911.63;684572;28;66437;-68
2022/02/17 01:42:07;;;;;;;0.93;0.93;;;;;;;11.23;72.22;97901.88;683122;28;137925;-68
2022/02/17 01:42:30;;;;;;;0.80;0.80;;;;;;;11.21;72.11;97901.34;685930;28;46531;-68
2022/02/17 01:42:51;;;;;;;0.85;0.85;;;;;;;11.18;71.78;97880.22;683710;28;69401;-68
2022/02/17 01:43:16;;;;;;;0.80;0.80;;;;;;;11.17;72.14;97874.00;681099;29;21545;-68
2022/02/17 01:43:37;;;;;;;0.80;0.80;;;;;;;11.17;71.84;97883.97;680299;28;115115;-68
2022/02/17 01:44:02;;;;;;;0.85;0.85;;;;;;;11.15;71.71;97875.31;684592;28;21168;-68
2022/02/17 01:44:25;;;;;;;0.80;0.80;;;;;;;11.13;71.96;97885.56;683878;28;114487;-69
2022/02/17 01:44:51;;;;;;;0.80;0.80;;;;;;;11.11;72.15;97869.63;682898;28;135859;-68
2022/02/17 01:45:13;;;;;;;0.90;0.90;;;;;;;11.11;72.31;97874.19;686577;28;46397;-68